Time;durP1;ratioP1;P1;durP2;ratioP2;P2;SDS_P1;SDS_P2;PMS_P1;PMS_P2;Temp;Humidity;BMP_temperature;BMP_pressure;BME280_temperature;BME280_humidity;BME280_pressure;Samples;Min_cycle;Max_cycle;Signal;HPM_P1;HPM_P2
2022/09/03 05:53:18;;;;;;;0.10;0.10;;;15.20;83.60;;;;;;4853756;29;20059;-76
2022/09/03 05:55:53;;;;;;;0.20;0.20;;;15.30;83.70;;;;;;4847139;29;20048;-76
2022/09/03 05:58:18;;;;;;;0.17;0.17;;;15.20;83.80;;;;;;4868873;29;20111;-76
2022/09/03 06:00:44;;;;;;;0.10;0.10;;;15.20;83.90;;;;;;4866892;29;20045;-76
2022/09/03 06:03:10;;;;;;;0.20;0.20;;;15.20;84.00;;;;;;4851129;29;20056;-76
2022/09/03 06:05:35;;;;;;;0.10;0.10;;;15.30;84.20;;;;;;4866681;29;20078;-76
2022/09/03 06:08:01;;;;;;;0.20;0.20;;;15.20;84.20;;;;;;4872087;29;20049;-76
2022/09/03 06:10:27;;;;;;;0.15;0.15;;;15.20;84.30;;;;;;4870206;29;20131;-76
2022/09/03 06:12:52;;;;;;;0.10;0.10;;;15.30;84.40;;;;;;4870045;29;20049;-76
2022/09/03 06:15:18;;;;;;;0.20;0.20;;;15.30;84.50;;;;;;4868765;29;20123;-76
2022/09/03 06:17:43;;;;;;;0.15;0.15;;;15.30;84.60;;;;;;4852698;29;20048;-76
2022/09/03 06:20:09;;;;;;;0.17;0.17;;;15.20;84.60;;;;;;4872884;29;20512;-75
2022/09/03 06:22:35;;;;;;;0.20;0.20;;;15.30;84.70;;;;;;4869484;29;20052;-76
2022/09/03 06:25:00;;;;;;;0.10;0.10;;;15.50;84.80;;;;;;4873967;29;20524;-76
2022/09/03 06:27:28;;;;;;;0.20;0.20;;;16.00;85.20;;;;;;4876251;29;20155;-75
2022/09/03 06:29:53;;;;;;;0.20;0.20;;;15.40;84.90;;;;;;4872493;29;20092;-76
2022/09/03 06:32:19;;;;;;;0.10;0.10;;;15.40;85.10;;;;;;4874145;29;20148;-75
2022/09/03 06:34:44;;;;;;;0.20;0.20;;;15.50;85.30;;;;;;4871216;29;20056;-76
2022/09/03 06:37:10;;;;;;;0.10;0.10;;;15.50;85.40;;;;;;4860770;29;20056;-76
2022/09/03 06:39:36;;;;;;;0.15;0.15;;;15.50;85.50;;;;;;4879039;29;20476;-75
2022/09/03 06:42:01;;;;;;;0.10;0.10;;;15.50;85.60;;;;;;4869657;29;20142;-77
2022/09/03 06:44:27;;;;;;;0.20;0.20;;;15.50;85.60;;;;;;4868847;29;20052;-77
2022/09/03 06:46:53;;;;;;;0.10;0.10;;;15.60;85.70;;;;;;4871482;29;20041;-77
2022/09/03 06:49:19;;;;;;;0.20;0.20;;;15.70;86.00;;;;;;4870349;29;20041;-77
2022/09/03 06:51:44;;;;;;;0.10;0.10;;;16.00;89.00;;;;;;4869751;29;20053;-77
2022/09/03 06:54:11;;;;;;;0.17;0.17;;;17.50;90.30;;;;;;4893327;29;20124;-77
2022/09/03 06:56:39;;;;;;;0.20;0.20;;;16.00;91.40;;;;;;4871435;29;21780;-77
2022/09/03 06:59:14;;;;;;;0.20;0.20;;;15.80;86.30;;;;;;4875056;29;20107;-76
2022/09/03 07:01:42;;;;;;;0.20;0.20;;;15.80;86.40;;;;;;4884863;29;20135;-77
2022/09/03 07:04:09;;;;;;;0.20;0.20;;;15.90;86.40;;;;;;4889216;29;20044;-77
2022/09/03 07:06:37;;;;;;;0.13;0.13;;;16.00;86.50;;;;;;4890256;29;20457;-77
2022/09/03 07:09:04;;;;;;;0.20;0.20;;;16.20;87.50;;;;;;4891390;29;20045;-78
2022/09/03 07:11:32;;;;;;;0.20;0.20;;;16.50;87.60;;;;;;4889372;29;20049;-77
2022/09/03 07:13:58;;;;;;;0.13;0.13;;;16.30;86.90;;;;;;4893821;29;20049;-78
2022/09/03 07:16:35;;;;;;;0.20;0.20;;;16.30;86.80;;;;;;4892982;29;20100;-77
2022/09/03 07:19:02;;;;;;;0.10;0.10;;;16.10;86.40;;;;;;4892478;29;20084;-77
2022/09/03 07:21:30;;;;;;;0.20;0.20;;;16.20;86.40;;;;;;4895397;29;20117;-78
2022/09/03 07:23:56;;;;;;;0.10;0.10;;;16.60;86.40;;;;;;4878778;29;20059;-78
2022/09/03 07:26:28;;;;;;;0.10;0.10;;;16.20;86.20;;;;;;4897618;29;20542;-78
2022/09/03 07:28:54;;;;;;;0.10;0.10;;;16.30;86.20;;;;;;4895621;29;20071;-76
2022/09/03 07:31:30;;;;;;;0.20;0.20;;;16.40;86.20;;;;;;4895850;29;20040;-77
2022/09/03 07:33:57;;;;;;;0.10;0.10;;;16.40;86.20;;;;;;4896807;29;20103;-77
2022/09/03 07:36:25;;;;;;;0.10;0.10;;;16.60;86.30;;;;;;4897354;29;20052;-77
2022/09/03 07:38:54;;;;;;;0.20;0.20;;;16.50;86.00;;;;;;4891638;29;20048;-77
2022/09/03 07:41:20;;;;;;;0.20;0.20;;;16.70;85.90;;;;;;4895935;29;20057;-77
2022/09/03 07:43:46;;;;;;;0.10;0.10;;;16.60;85.60;;;;;;4894824;29;20040;-77
2022/09/03 07:46:22;;;;;;;0.20;0.20;;;16.70;85.40;;;;;;4895752;29;20132;-77
2022/09/03 07:49:00;;;;;;;0.10;0.10;;;16.70;85.30;;;;;;4897114;29;20381;-77
2022/09/03 07:51:28;;;;;;;0.20;0.20;;;16.80;85.20;;;;;;4896422;29;20052;-77
2022/09/03 07:53:59;;;;;;;0.20;0.20;;;16.90;85.20;;;;;;4894053;29;20078;-77
2022/09/03 07:56:26;;;;;;;0.20;0.20;;;17.00;85.30;;;;;;4898040;29;20047;-77
2022/09/03 07:58:52;;;;;;;0.20;0.20;;;16.90;85.00;;;;;;4898457;29;20056;-77
2022/09/03 08:01:19;;;;;;;0.10;0.10;;;17.20;85.10;;;;;;4898482;29;20119;-77
2022/09/03 08:03:47;;;;;;;0.20;0.20;;;17.30;84.90;;;;;;4881166;29;20096;-77
2022/09/03 08:06:14;;;;;;;0.20;0.20;;;17.30;84.80;;;;;;4879673;29;20076;-77
2022/09/03 08:08:40;;;;;;;0.20;0.20;;;17.30;84.70;;;;;;4895317;29;20049;-78
2022/09/03 08:11:11;;;;;;;0.10;0.10;;;17.80;84.80;;;;;;4897373;29;20097;-77
2022/09/03 08:13:41;;;;;;;0.13;0.13;;;17.30;84.30;;;;;;4896593;29;20052;-77
2022/09/03 08:16:09;;;;;;;0.20;0.20;;;17.50;84.20;;;;;;4897788;29;20052;-77
2022/09/03 08:18:38;;;;;;;0.17;0.17;;;17.80;84.00;;;;;;4880694;29;20049;-77
2022/09/03 08:21:09;;;;;;;0.20;0.20;;;17.70;83.80;;;;;;4896545;29;20045;-77
2022/09/03 08:23:38;;;;;;;;;;;17.70;83.00;;;;;;4896316;29;20100;-77
2022/09/03 08:26:05;;;;;;;0.10;0.10;;;17.70;83.50;;;;;;4894997;29;19946;-76
2022/09/03 08:28:33;;;;;;;0.10;0.10;;;17.80;83.40;;;;;;4897859;29;20051;-77
2022/09/03 08:31:05;;;;;;;0.20;0.20;;;17.80;83.10;;;;;;4879395;29;20267;-77
2022/09/03 08:33:37;;;;;;;0.10;0.10;;;18.00;83.20;;;;;;4896577;29;20059;-78
2022/09/03 08:36:17;;;;;;;0.10;0.10;;;18.00;83.00;;;;;;4897206;29;20056;-77
2022/09/03 08:38:45;;;;;;;0.20;0.20;;;18.10;82.90;;;;;;4896200;29;20048;-77
2022/09/03 08:41:28;;;;;;;0.20;0.20;;;18.30;82.80;;;;;;4896233;29;20457;-77
2022/09/03 08:44:09;;;;;;;0.20;0.20;;;18.30;82.50;;;;;;4896780;29;20052;-77
2022/09/03 08:46:40;;;;;;;0.20;0.20;;;18.30;82.20;;;;;;4896872;29;20056;-77
2022/09/03 08:49:10;;;;;;;0.20;0.20;;;18.50;82.10;;;;;;4878760;29;20120;-77
2022/09/03 08:51:39;;;;;;;0.20;0.20;;;18.50;81.90;;;;;;4895097;29;20055;-77
2022/09/03 08:54:08;;;;;;;0.20;0.20;;;18.50;81.80;;;;;;4895721;29;20048;-77
2022/09/03 08:56:37;;;;;;;0.20;0.20;;;18.60;81.60;;;;;;4896799;29;20092;-77
2022/09/03 08:59:04;;;;;;;0.20;0.20;;;18.70;81.50;;;;;;4879578;29;20076;-77
2022/09/03 09:01:57;;;;;;;0.20;0.20;;;18.70;81.40;;;;;;4878917;29;20053;-77
2022/09/03 09:04:33;;;;;;;0.10;0.10;;;18.80;81.30;;;;;;4895408;29;20052;-77
2022/09/03 09:07:11;;;;;;;0.20;0.20;;;18.90;81.10;;;;;;4895497;29;20068;-77
2022/09/03 09:10:10;;;;;;;0.20;0.20;;;18.90;81.50;;;;;;4893963;29;20044;-77
2022/09/03 09:13:00;;;;;;;0.10;0.10;;;19.00;81.00;;;;;;4895658;29;20091;-77
2022/09/03 09:15:47;;;;;;;0.20;0.20;;;19.10;81.10;;;;;;4894467;29;20136;-77
2022/09/03 09:18:22;;;;;;;0.17;0.17;;;19.20;80.60;;;;;;4879788;29;20492;-77
2022/09/03 09:20:55;;;;;;;0.20;0.20;;;19.30;80.40;;;;;;4895799;29;20053;-78
2022/09/03 09:23:29;;;;;;;0.20;0.20;;;19.40;80.20;;;;;;4893511;29;20500;-78
2022/09/03 09:25:56;;;;;;;0.10;0.10;;;19.50;80.20;;;;;;4894476;29;20086;-77
2022/09/03 09:28:34;;;;;;;0.17;0.17;;;19.60;79.90;;;;;;4894670;29;20052;-78
2022/09/03 09:31:01;;;;;;;0.20;0.20;;;19.60;79.70;;;;;;4893452;29;20519;-78
2022/09/03 09:33:30;;;;;;;0.20;0.20;;;19.70;79.60;;;;;;4895948;29;20045;-78
2022/09/03 09:36:00;;;;;;;0.20;0.20;;;19.70;79.40;;;;;;4894305;29;20080;-78
2022/09/03 09:38:32;;;;;;;0.20;0.20;;;19.80;79.40;;;;;;4892984;29;20132;-79
2022/09/03 09:41:08;;;;;;;0.20;0.20;;;19.90;79.50;;;;;;4894941;29;20045;-77
2022/09/03 09:43:34;;;;;;;0.20;0.20;;;19.90;79.20;;;;;;4893949;29;20072;-80
2022/09/03 09:46:13;;;;;;;0.15;0.15;;;20.00;79.00;;;;;;4878691;29;20500;-78
2022/09/03 09:48:50;;;;;;;0.20;0.20;;;20.10;78.70;;;;;;4878850;29;20063;-78
2022/09/03 09:51:22;;;;;;;0.20;0.20;;;20.20;78.50;;;;;;4893451;29;20048;-79
2022/09/03 09:53:48;;;;;;;0.20;0.20;;;20.20;78.30;;;;;;4892837;29;20338;-78
2022/09/03 09:56:24;;;;;;;0.10;0.10;;;20.30;78.00;;;;;;4895267;29;20067;-78
2022/09/03 09:59:08;;;;;;;0.15;0.15;;;20.30;77.60;;;;;;4894864;29;20047;-78
2022/09/03 10:01:37;;;;;;;0.20;0.20;;;20.40;77.60;;;;;;4894556;29;20116;-78
2022/09/03 10:04:12;;;;;;;0.20;0.20;;;20.50;77.60;;;;;;4893974;29;20048;-79
2022/09/03 10:06:55;;;;;;;0.15;0.15;;;20.50;77.40;;;;;;4893347;29;20053;-78
2022/09/03 10:09:28;;;;;;;0.20;0.20;;;20.60;77.10;;;;;;4893460;29;20079;-78
2022/09/03 10:12:05;;;;;;;0.13;0.13;;;20.70;76.90;;;;;;4894478;29;20049;-78
2022/09/03 10:14:44;;;;;;;0.10;0.10;;;20.80;76.60;;;;;;4895318;29;20044;-79
2022/09/03 10:17:27;;;;;;;0.20;0.20;;;20.90;76.40;;;;;;4894497;29;20052;-78
2022/09/03 10:23:03;;;;;;;;;;;21.10;76.00;;;;;;4878059;29;20052;-78
2022/09/03 10:25:52;;;;;;;0.10;0.10;;;21.20;75.50;;;;;;4877634;29;19992;-79
2022/09/03 10:28:22;;;;;;;0.20;0.20;;;21.20;75.40;;;;;;4866711;29;20056;-79
2022/09/03 10:31:18;;;;;;;0.10;0.10;;;21.40;75.00;;;;;;4860554;29;20405;-78
2022/09/03 10:34:01;;;;;;;0.10;0.10;;;21.40;74.80;;;;;;4874389;29;20377;-79
2022/09/03 10:36:35;;;;;;;0.13;0.13;;;21.50;74.40;;;;;;4876493;29;20501;-78
2022/09/03 10:39:28;;;;;;;0.20;0.20;;;21.60;74.20;;;;;;4861653;29;20049;-79
2022/09/03 10:42:27;;;;;;;0.20;0.20;;;21.70;73.70;;;;;;4893115;29;20143;-79
2022/09/03 10:45:03;;;;;;;0.10;0.10;;;21.70;73.20;;;;;;4894977;29;20049;-78
2022/09/03 10:47:44;;;;;;;0.15;0.15;;;21.80;72.80;;;;;;4894184;29;20049;-80
2022/09/03 10:50:15;;;;;;;;;;;21.90;72.70;;;;;;4895445;29;20128;-77
2022/09/03 10:53:06;;;;;;;0.20;0.20;;;22.00;72.70;;;;;;4868031;29;19971;-78
2022/09/03 10:55:49;;;;;;;0.20;0.20;;;22.10;72.10;;;;;;4860477;29;20057;-77
2022/09/03 10:58:44;;;;;;;0.17;0.17;;;22.10;71.70;;;;;;4863535;29;20053;-77
2022/09/03 11:01:36;;;;;;;0.20;0.20;;;22.30;71.50;;;;;;4861749;29;20132;-77
2022/09/03 11:04:13;;;;;;;0.10;0.10;;;22.40;71.50;;;;;;4879968;29;20128;-77
2022/09/03 11:07:04;;;;;;;0.20;0.20;;;22.50;71.30;;;;;;4878632;29;20150;-77
2022/09/03 11:09:48;;;;;;;0.20;0.20;;;22.60;70.70;;;;;;4878051;29;20045;-77
2022/09/03 11:12:21;;;;;;;0.10;0.10;;;22.70;70.50;;;;;;4879870;29;20056;-78
2022/09/03 11:15:06;;;;;;;0.20;0.20;;;22.80;70.30;;;;;;4878052;29;20078;-77
2022/09/03 11:17:45;;;;;;;0.20;0.20;;;23.00;70.20;;;;;;4878347;29;20129;-77
2022/09/03 11:20:17;;;;;;;0.20;0.20;;;23.10;69.70;;;;;;4879842;29;20075;-77
2022/09/03 11:22:44;;;;;;;0.20;0.20;;;23.20;69.60;;;;;;4878220;29;20712;-76
2022/09/03 11:25:13;;;;;;;0.20;0.20;;;23.30;69.00;;;;;;4877557;29;20063;-76
2022/09/03 11:27:42;;;;;;;0.20;0.20;;;23.40;68.60;;;;;;4879475;29;20053;-77
2022/09/03 11:30:13;;;;;;;0.20;0.20;;;23.50;68.40;;;;;;4878138;29;20052;-78
2022/09/03 11:33:04;;;;;;;0.20;0.20;;;23.50;68.50;;;;;;4879339;29;20063;-78
2022/09/03 11:35:32;;;;;;;0.20;0.20;;;23.70;67.80;;;;;;4879730;29;20135;-78
2022/09/03 11:38:03;;;;;;;0.20;0.20;;;23.80;67.90;;;;;;4878559;29;20056;-78
2022/09/03 11:40:38;;;;;;;0.20;0.20;;;23.90;67.10;;;;;;4861346;29;20053;-78
2022/09/03 11:43:32;;;;;;;0.20;0.20;;;24.00;66.80;;;;;;4878728;29;20060;-79
2022/09/03 11:46:04;;;;;;;0.20;0.20;;;24.10;66.70;;;;;;4877916;29;20049;-78
2022/09/03 11:48:37;;;;;;;0.20;0.20;;;24.20;66.20;;;;;;4879036;29;20560;-78
2022/09/03 11:51:04;;;;;;;0.20;0.20;;;24.40;66.40;;;;;;4879391;29;20049;-79
2022/09/03 11:53:34;;;;;;;0.20;0.20;;;24.50;65.80;;;;;;4878288;29;20049;-79
2022/09/03 11:56:06;;;;;;;0.20;0.20;;;24.60;65.80;;;;;;4879776;29;20056;-79
2022/09/03 11:58:35;;;;;;;0.52;0.52;;;24.70;65.70;;;;;;4878178;29;20477;-79
2022/09/03 12:01:10;;;;;;;0.20;0.20;;;24.90;65.20;;;;;;4878086;29;20060;-78
2022/09/03 12:04:02;;;;;;;0.20;0.20;;;25.00;64.80;;;;;;4870528;29;20124;-79
2022/09/03 12:06:46;;;;;;;0.20;0.20;;;25.20;64.70;;;;;;4861349;29;20056;-79
2022/09/03 12:09:23;;;;;;;0.20;0.20;;;25.30;64.10;;;;;;4877541;29;20216;-78
2022/09/03 12:12:05;;;;;;;0.20;0.20;;;25.50;63.50;;;;;;4859637;29;20480;-79
2022/09/03 12:15:17;;;;;;;0.20;0.20;;;25.70;63.80;;;;;;4860092;29;20513;-78
2022/09/03 12:20:42;;;;;;;0.20;0.20;;;26.00;63.10;;;;;;4853976;29;20064;-79
2022/09/03 12:23:33;;;;;;;0.20;0.20;;;26.20;63.30;;;;;;4876927;29;20057;-79
2022/09/03 12:26:27;;;;;;;0.20;0.20;;;26.40;62.90;;;;;;4877876;29;20048;-78
2022/09/03 12:28:58;;;;;;;0.20;0.20;;;26.60;62.50;;;;;;4878224;29;20373;-76
2022/09/03 12:31:28;;;;;;;0.20;0.20;;;26.80;62.40;;;;;;4877289;29;20144;-78
2022/09/03 12:34:00;;;;;;;0.20;0.20;;;27.00;62.10;;;;;;4875950;29;20057;-78
2022/09/03 12:36:53;;;;;;;0.22;0.22;;;27.10;61.70;;;;;;4877233;29;20076;-78
2022/09/03 12:39:25;;;;;;;0.20;0.20;;;27.20;61.00;;;;;;4875189;29;20481;-78
2022/09/03 12:42:03;;;;;;;0.13;0.13;;;27.30;60.60;;;;;;4878330;29;20049;-78
2022/09/03 12:44:34;;;;;;;0.20;0.20;;;27.40;60.60;;;;;;4878200;29;20049;-78
2022/09/03 12:47:02;;;;;;;0.20;0.20;;;27.50;60.40;;;;;;4877545;29;20089;-77
2022/09/03 12:49:39;;;;;;;0.20;0.20;;;27.60;60.40;;;;;;4877950;29;20041;-77
2022/09/03 12:52:18;;;;;;;0.20;0.20;;;27.60;60.20;;;;;;4882366;29;20557;-77
2022/09/03 12:55:03;;;;;;;0.20;0.20;;;27.70;59.80;;;;;;4877643;29;20060;-78
2022/09/03 12:57:44;;;;;;;0.20;0.20;;;27.80;59.90;;;;;;4897360;29;20045;-77
2022/09/03 13:00:14;;;;;;;0.20;0.20;;;27.80;60.00;;;;;;4896538;29;20056;-78
2022/09/03 13:02:42;;;;;;;0.20;0.20;;;27.80;59.40;;;;;;4894330;29;20053;-78
2022/09/03 13:05:16;;;;;;;0.20;0.20;;;27.90;59.60;;;;;;4896356;29;20087;-78
2022/09/03 13:07:50;;;;;;;0.20;0.20;;;27.90;59.60;;;;;;4895663;29;20214;-76
2022/09/03 13:10:26;;;;;;;0.20;0.20;;;28.00;57.60;;;;;;4894378;29;20049;-78
2022/09/03 13:12:58;;;;;;;0.30;0.30;;;28.00;59.00;;;;;;4896429;29;20091;-78
2022/09/03 13:15:25;;;;;;;0.20;0.20;;;28.10;59.70;;;;;;4895734;29;20064;-79
2022/09/03 13:18:20;;;;;;;0.20;0.20;;;28.20;59.30;;;;;;4895109;29;20049;-78
2022/09/03 13:21:07;;;;;;;0.20;0.20;;;28.30;59.40;;;;;;4894930;29;20052;-77
2022/09/03 13:24:01;;;;;;;0.20;0.20;;;28.40;59.40;;;;;;4896752;29;20103;-78
2022/09/03 13:26:33;;;;;;;0.20;0.20;;;28.50;58.50;;;;;;4895236;29;20353;-77
2022/09/03 13:29:17;;;;;;;0.20;0.20;;;28.60;58.10;;;;;;4878696;29;20064;-78
2022/09/03 13:31:50;;;;;;;0.20;0.20;;;28.60;58.30;;;;;;4896172;29;20539;-79
2022/09/03 13:34:34;;;;;;;0.20;0.20;;;28.60;58.20;;;;;;4878927;29;20063;-76
2022/09/03 13:37:29;;;;;;;0.20;0.20;;;28.70;57.90;;;;;;4878013;29;20048;-76
2022/09/03 13:40:05;;;;;;;0.20;0.20;;;28.70;57.80;;;;;;4878428;29;20404;-78
2022/09/03 13:42:41;;;;;;;0.20;0.20;;;28.80;57.60;;;;;;4878554;29;20048;-78
2022/09/03 13:45:37;;;;;;;0.20;0.20;;;28.70;57.60;;;;;;4897384;29;20127;-77
2022/09/03 13:51:18;;;;;;;0.20;0.20;;;28.80;57.00;;;;;;4859774;29;20061;-77
2022/09/03 13:54:13;;;;;;;0.20;0.20;;;28.80;57.20;;;;;;4859072;29;20111;-77
2022/09/03 13:56:58;;;;;;;0.20;0.20;;;28.80;57.50;;;;;;4852254;29;20057;-78
2022/09/03 13:59:49;;;;;;;0.28;0.28;;;28.80;57.20;;;;;;4875505;29;20152;-78
2022/09/03 14:02:33;;;;;;;0.20;0.20;;;28.80;57.10;;;;;;4877226;29;20076;-78
2022/09/03 14:05:11;;;;;;;0.20;0.20;;;28.80;57.10;;;;;;4859165;29;20053;-78
2022/09/03 14:07:55;;;;;;;0.20;0.20;;;28.90;57.00;;;;;;4876169;29;20048;-78
2022/09/03 14:10:38;;;;;;;0.20;0.20;;;28.90;56.90;;;;;;4876307;29;20045;-77
2022/09/03 14:13:13;;;;;;;0.20;0.20;;;28.80;56.80;;;;;;4876273;29;20461;-78
2022/09/03 14:15:56;;;;;;;0.20;0.20;;;28.90;56.90;;;;;;4877867;29;20108;-79
2022/09/03 14:18:34;;;;;;;0.20;0.20;;;28.90;56.70;;;;;;4875087;29;20072;-78
2022/09/03 14:21:06;;;;;;;0.20;0.20;;;29.00;56.90;;;;;;4876728;29;20045;-79
2022/09/03 14:23:46;;;;;;;0.20;0.20;;;29.30;56.70;;;;;;4876042;29;20049;-77
2022/09/03 14:26:31;;;;;;;0.20;0.20;;;29.50;57.00;;;;;;4868082;29;20412;-78
2022/09/03 14:29:10;;;;;;;0.20;0.20;;;30.00;56.80;;;;;;4875966;29;20053;-78
2022/09/03 14:32:14;;;;;;;0.20;0.20;;;30.40;56.50;;;;;;4875306;29;20052;-78
2022/09/03 14:35:10;;;;;;;0.20;0.20;;;30.80;55.60;;;;;;4874659;29;20072;-77
2022/09/03 14:37:49;;;;;;;0.20;0.20;;;31.00;55.30;;;;;;4874512;29;20417;-78
2022/09/03 14:40:18;;;;;;;0.20;0.20;;;31.30;55.90;;;;;;4875092;29;20053;-78
2022/09/03 14:43:05;;;;;;;0.20;0.20;;;31.60;55.20;;;;;;4874840;29;20041;-78
2022/09/03 14:45:49;;;;;;;0.20;0.20;;;31.80;54.20;;;;;;4859349;29;20072;-78
2022/09/03 14:48:33;;;;;;;0.20;0.20;;;32.00;53.50;;;;;;4876717;29;20446;-78
2022/09/03 14:51:19;;;;;;;0.20;0.20;;;31.90;53.20;;;;;;4876880;29;20057;-78
2022/09/03 14:53:57;;;;;;;0.20;0.20;;;31.90;52.40;;;;;;4891790;29;20057;-78
2022/09/03 14:56:44;;;;;;;0.20;0.20;;;31.80;52.50;;;;;;4893292;29;20533;-77
2022/09/03 14:59:17;;;;;;;0.20;0.20;;;31.60;52.30;;;;;;4894078;29;20052;-78
2022/09/03 15:01:53;;;;;;;0.20;0.20;;;31.20;52.20;;;;;;4894295;29;20060;-78
2022/09/03 15:04:56;;;;;;;0.20;0.20;;;31.00;52.00;;;;;;4893785;29;20051;-78
2022/09/03 15:07:40;;;;;;;0.30;0.30;;;30.70;52.40;;;;;;4894254;29;20055;-78
2022/09/03 15:10:36;;;;;;;0.20;0.20;;;30.40;52.90;;;;;;4893611;29;20044;-78
2022/09/03 15:13:15;;;;;;;0.20;0.20;;;30.50;54.30;;;;;;4893749;29;20195;-78
2022/09/03 15:15:41;;;;;;;0.20;0.20;;;31.10;53.90;;;;;;4893605;29;20064;-79
2022/09/03 15:18:44;;;;;;;0.20;0.20;;;31.90;54.30;;;;;;4894952;29;20048;-79
2022/09/03 15:21:29;;;;;;;0.20;0.20;;;32.90;53.80;;;;;;4838692;29;20138;-78
2022/09/03 15:24:17;;;;;;;0.20;0.20;;;33.60;51.70;;;;;;4873960;29;20144;-78
2022/09/03 15:27:20;;;;;;;0.20;0.20;;;33.30;50.80;;;;;;4892368;29;20121;-78
2022/09/03 15:30:11;;;;;;;0.20;0.20;;;32.90;50.40;;;;;;4875027;29;20053;-78
2022/09/03 15:33:01;;;;;;;0.20;0.20;;;32.40;50.60;;;;;;4877833;29;20133;-78
2022/09/03 15:35:36;;;;;;;0.25;0.25;;;32.00;51.50;;;;;;4894097;29;20049;-77
2022/09/03 15:38:41;;;;;;;0.20;0.20;;;31.70;50.90;;;;;;4893172;29;20052;-78
2022/09/03 15:41:17;;;;;;;0.20;0.20;;;31.50;50.80;;;;;;4894706;29;20139;-77
2022/09/03 15:43:48;;;;;;;0.20;0.20;;;31.20;50.80;;;;;;4895725;29;20047;-78
2022/09/03 15:46:37;;;;;;;0.20;0.20;;;30.70;50.80;;;;;;4896570;29;20041;-78
2022/09/03 15:49:17;;;;;;;0.20;0.20;;;30.30;51.10;;;;;;4896959;29;20056;-78
2022/09/03 15:51:48;;;;;;;0.20;0.20;;;29.90;51.30;;;;;;4896231;29;20055;-78
2022/09/03 15:54:47;;;;;;;0.20;0.20;;;29.50;51.60;;;;;;4896892;29;20052;-77
2022/09/03 15:57:18;;;;;;;0.20;0.20;;;29.20;51.90;;;;;;4861984;29;20591;-78
2022/09/03 16:00:06;;;;;;;0.20;0.20;;;28.90;52.00;;;;;;4879045;29;20394;-78
2022/09/03 16:02:44;;;;;;;0.20;0.20;;;28.60;52.20;;;;;;4881338;29;20056;-78
2022/09/03 16:05:17;;;;;;;0.20;0.20;;;28.40;52.60;;;;;;4896808;29;20115;-79
2022/09/03 16:08:01;;;;;;;0.20;0.20;;;28.10;52.60;;;;;;4897019;29;20163;-78
2022/09/03 16:11:02;;;;;;;0.20;0.20;;;27.90;52.90;;;;;;4895168;29;20511;-76
2022/09/03 16:13:40;;;;;;;0.20;0.20;;;27.60;52.90;;;;;;4894964;29;20063;-78
2022/09/03 16:16:14;;;;;;;0.25;0.25;;;27.40;53.10;;;;;;4896237;29;20040;-78
2022/09/03 16:19:09;;;;;;;0.20;0.20;;;27.20;53.60;;;;;;4896600;29;20052;-79
2022/09/03 16:22:06;;;;;;;0.20;0.20;;;27.00;53.50;;;;;;4897834;29;20045;-78
2022/09/03 16:24:52;;;;;;;0.20;0.20;;;26.90;53.80;;;;;;4894969;29;20516;-78
2022/09/03 16:27:25;;;;;;;0.20;0.20;;;26.80;54.00;;;;;;4879019;29;20045;-77
2022/09/03 16:30:01;;;;;;;0.20;0.20;;;26.60;54.10;;;;;;4878556;29;20084;-79
2022/09/03 16:32:52;;;;;;;0.20;0.20;;;26.50;54.30;;;;;;4876774;29;20040;-79
2022/09/03 16:35:34;;;;;;;0.22;0.22;;;26.40;54.60;;;;;;4884028;29;20365;-77
2022/09/03 16:38:21;;;;;;;0.20;0.20;;;26.30;54.90;;;;;;4895393;29;20053;-77
2022/09/03 16:41:17;;;;;;;0.20;0.20;;;26.30;55.10;;;;;;4896945;29;20071;-78
2022/09/03 16:44:01;;;;;;;0.20;0.20;;;26.20;55.20;;;;;;4895651;29;20060;-78
2022/09/03 16:46:29;;;;;;;0.30;0.30;;;26.10;55.70;;;;;;4895138;29;20508;-79
2022/09/03 16:49:32;;;;;;;0.30;0.30;;;26.40;55.90;;;;;;4896812;29;20412;-78
2022/09/03 16:52:06;;;;;;;0.20;0.20;;;26.70;56.00;;;;;;4895136;29;20116;-78
2022/09/03 16:54:57;;;;;;;0.20;0.20;;;27.30;55.60;;;;;;4877960;29;20504;-78
2022/09/03 16:57:28;;;;;;;0.20;0.20;;;27.60;54.70;;;;;;4876867;29;20505;-78
2022/09/03 17:00:19;;;;;;;0.22;0.22;;;27.50;54.10;;;;;;4876621;29;20061;-79
2022/09/03 17:03:23;;;;;;;0.28;0.28;;;27.30;54.10;;;;;;4878177;29;20060;-78
2022/09/03 17:06:06;;;;;;;0.20;0.20;;;27.10;54.10;;;;;;4886021;29;20124;-77
2022/09/03 17:09:08;;;;;;;0.20;0.20;;;26.90;54.40;;;;;;4896115;29;20461;-78
2022/09/03 17:11:45;;;;;;;0.20;0.20;;;26.70;54.50;;;;;;4889628;29;20123;-78
2022/09/03 17:14:45;;;;;;;0.20;0.20;;;26.50;54.60;;;;;;4895663;29;20053;-79
2022/09/03 17:17:36;;;;;;;0.30;0.30;;;26.30;54.80;;;;;;4897115;29;20059;-78
2022/09/03 17:20:18;;;;;;;0.20;0.20;;;26.00;55.00;;;;;;4896021;29;20078;-78
2022/09/03 17:23:08;;;;;;;0.22;0.22;;;25.90;55.20;;;;;;4896575;29;20072;-78
2022/09/03 17:25:38;;;;;;;0.20;0.20;;;25.70;55.40;;;;;;4895439;29;20128;-77
2022/09/03 17:28:45;;;;;;;0.20;0.20;;;25.50;55.50;;;;;;4879290;29;20158;-78
2022/09/03 17:31:28;;;;;;;0.20;0.20;;;25.40;55.50;;;;;;4869585;29;20057;-78
2022/09/03 17:34:04;;;;;;;0.20;0.20;;;25.20;55.80;;;;;;4863126;29;20477;-79
2022/09/03 17:36:35;;;;;;;0.20;0.20;;;25.10;55.80;;;;;;4894495;29;20075;-79
2022/09/03 17:39:41;;;;;;;0.20;0.20;;;25.00;56.10;;;;;;4893479;29;20055;-79
2022/09/03 17:42:22;;;;;;;0.15;0.15;;;24.80;56.00;;;;;;4893391;29;20064;-79
2022/09/03 17:45:12;;;;;;;0.20;0.20;;;24.70;56.30;;;;;;4894669;29;20037;-79
2022/09/03 17:47:47;;;;;;;0.20;0.20;;;24.60;56.40;;;;;;4895642;29;20088;-79
2022/09/03 17:50:23;;;;;;;0.20;0.20;;;24.40;56.50;;;;;;4895077;29;20457;-78
2022/09/03 17:53:08;;;;;;;0.20;0.20;;;24.30;56.60;;;;;;4894565;29;20068;-79
2022/09/03 17:55:41;;;;;;;0.20;0.20;;;24.20;56.90;;;;;;4893967;29;20052;-79
2022/09/03 17:58:52;;;;;;;0.30;0.30;;;24.10;57.00;;;;;;4895975;29;20382;-78
2022/09/03 18:01:27;;;;;;;0.20;0.20;;;24.00;57.10;;;;;;4884379;29;20109;-79
2022/09/03 18:03:56;;;;;;;0.20;0.20;;;23.90;57.20;;;;;;4893978;29;20448;-79
2022/09/03 18:06:35;;;;;;;0.30;0.30;;;23.80;57.40;;;;;;4895885;29;20572;-79
2022/09/03 18:09:06;;;;;;;0.20;0.20;;;23.70;57.60;;;;;;4894281;29;20058;-78
2022/09/03 18:11:40;;;;;;;0.20;0.20;;;23.60;57.70;;;;;;4893449;29;20062;-78
2022/09/03 18:14:30;;;;;;;0.20;0.20;;;23.50;57.70;;;;;;4882317;29;20036;-78
2022/09/03 18:17:27;;;;;;;0.20;0.20;;;23.50;57.90;;;;;;4894836;29;20048;-79
2022/09/03 20:12:36;;;;;;;0.20;0.20;;;20.90;60.90;;;;;;4881420;29;20588;-78
2022/09/03 20:15:04;;;;;;;0.20;0.20;;;20.90;61.10;;;;;;4870760;29;20057;-80
2022/09/03 20:18:09;;;;;;;0.20;0.20;;;20.90;61.10;;;;;;4857060;29;20044;-78
2022/09/03 20:20:43;;;;;;;0.10;0.10;;;20.80;61.20;;;;;;4853278;29;20095;-78
2022/09/03 20:23:36;;;;;;;0.20;0.20;;;20.70;61.20;;;;;;4871847;29;20136;-77
2022/09/03 20:26:30;;;;;;;0.20;0.20;;;20.70;61.20;;;;;;4863216;29;20555;-78
2022/09/03 20:29:29;;;;;;;0.20;0.20;;;20.60;61.20;;;;;;4875576;29;20044;-77
2022/09/03 20:32:18;;;;;;;0.15;0.15;;;20.60;61.30;;;;;;4873915;29;20381;-78
2022/09/03 20:35:13;;;;;;;0.20;0.20;;;20.50;61.20;;;;;;4875221;29;20553;-78
2022/09/03 20:37:40;;;;;;;0.10;0.10;;;20.50;61.30;;;;;;4875874;29;20063;-78
2022/09/03 20:40:24;;;;;;;0.20;0.20;;;20.40;61.20;;;;;;4877327;29;20515;-78
2022/09/03 20:42:52;;;;;;;0.20;0.20;;;20.40;61.30;;;;;;4869296;29;20045;-79
2022/09/03 20:45:23;;;;;;;0.20;0.20;;;20.40;61.40;;;;;;4874217;29;20140;-77
2022/09/03 20:48:04;;;;;;;0.10;0.10;;;20.40;61.40;;;;;;4859660;29;21402;-77
2022/09/03 20:50:48;;;;;;;0.20;0.20;;;20.30;61.40;;;;;;4861574;29;20049;-78
2022/09/03 20:53:36;;;;;;;0.20;0.20;;;20.30;61.50;;;;;;4884231;29;20067;-78
2022/09/03 20:56:14;;;;;;;0.20;0.20;;;20.20;61.50;;;;;;4895028;29;20076;-78
2022/09/03 20:59:06;;;;;;;0.20;0.20;;;20.20;61.60;;;;;;4893948;29;20049;-79
2022/09/03 21:01:58;;;;;;;0.20;0.20;;;20.20;61.60;;;;;;4891861;29;20057;-78
2022/09/03 21:05:06;;;;;;;0.20;0.20;;;20.10;61.60;;;;;;4889381;29;20141;-78
